sensor_id;sensor_type;location;lat;lon;timestamp;P1;durP1;ratioP1;P2;durP2;ratioP2
42632;SDS011;28261;53.304;-6.284;2024-03-02T00:00:11;12.43;;;3.53;;
42632;SDS011;28261;53.304;-6.284;2024-03-02T00:02:16;10.85;;;3.72;;
42632;SDS011;28261;53.304;-6.284;2024-03-02T00:04:20;10.07;;;3.58;;
42632;SDS011;28261;53.304;-6.284;2024-03-02T00:06:23;7.68;;;3.35;;
42632;SDS011;28261;53.304;-6.284;2024-03-02T00:08:27;11.05;;;2.55;;
42632;SDS011;28261;53.304;-6.284;2024-03-02T00:10:34;8.98;;;3.25;;
42632;SDS011;28261;53.304;-6.284;2024-03-02T00:12:42;9.98;;;3.00;;
42632;SDS011;28261;53.304;-6.284;2024-03-02T00:14:46;12.35;;;2.70;;
42632;SDS011;28261;53.304;-6.284;2024-03-02T00:16:52;14.15;;;2.55;;
42632;SDS011;28261;53.304;-6.284;2024-03-02T00:19:01;8.07;;;3.28;;
42632;SDS011;28261;53.304;-6.284;2024-03-02T00:21:05;5.53;;;3.05;;
42632;SDS011;28261;53.304;-6.284;2024-03-02T00:23:14;8.93;;;2.30;;
42632;SDS011;28261;53.304;-6.284;2024-03-02T00:25:18;6.35;;;1.80;;
42632;SDS011;28261;53.304;-6.284;2024-03-02T00:27:23;9.88;;;2.35;;
42632;SDS011;28261;53.304;-6.284;2024-03-02T00:29:27;7.55;;;2.13;;
42632;SDS011;28261;53.304;-6.284;2024-03-02T00:33:37;2.78;;;1.75;;
42632;SDS011;28261;53.304;-6.284;2024-03-02T00:35:45;10.02;;;2.30;;
42632;SDS011;28261;53.304;-6.284;2024-03-02T00:37:48;8.25;;;1.98;;
42632;SDS011;28261;53.304;-6.284;2024-03-02T00:39:53;6.32;;;1.95;;
42632;SDS011;28261;53.304;-6.284;2024-03-02T00:41:56;8.48;;;2.10;;
42632;SDS011;28261;53.304;-6.284;2024-03-02T00:44:01;5.15;;;1.60;;
42632;SDS011;28261;53.304;-6.284;2024-03-02T00:46:05;3.55;;;1.80;;
42632;SDS011;28261;53.304;-6.284;2024-03-02T00:48:09;5.07;;;1.60;;
42632;SDS011;28261;53.304;-6.284;2024-03-02T00:50:16;2.90;;;1.27;;
42632;SDS011;28261;53.304;-6.284;2024-03-02T00:52:31;4.32;;;1.45;;
42632;SDS011;28261;53.304;-6.284;2024-03-02T00:54:35;5.25;;;1.35;;
42632;SDS011;28261;53.304;-6.284;2024-03-02T00:56:39;3.10;;;1.23;;
42632;SDS011;28261;53.304;-6.284;2024-03-02T00:58:45;7.00;;;1.33;;
42632;SDS011;28261;53.304;-6.284;2024-03-02T01:00:48;5.07;;;1.23;;
42632;SDS011;28261;53.304;-6.284;2024-03-02T01:02:52;3.22;;;1.23;;
42632;SDS011;28261;53.304;-6.284;2024-03-02T01:04:55;3.15;;;1.10;;
42632;SDS011;28261;53.304;-6.284;2024-03-02T01:07:00;7.18;;;1.73;;
42632;SDS011;28261;53.304;-6.284;2024-03-02T01:09:04;4.80;;;1.27;;
42632;SDS011;28261;53.304;-6.284;2024-03-02T01:11:08;6.65;;;1.83;;
42632;SDS011;28261;53.304;-6.284;2024-03-02T01:13:12;4.93;;;1.20;;
42632;SDS011;28261;53.304;-6.284;2024-03-02T01:15:14;8.13;;;1.67;;
42632;SDS011;28261;53.304;-6.284;2024-03-02T01:17:18;3.25;;;1.08;;
42632;SDS011;28261;53.304;-6.284;2024-03-02T01:19:22;5.43;;;1.60;;
42632;SDS011;28261;53.304;-6.284;2024-03-02T01:21:27;4.90;;;1.30;;
42632;SDS011;28261;53.304;-6.284;2024-03-02T01:23:31;7.53;;;1.45;;
42632;SDS011;28261;53.304;-6.284;2024-03-02T01:25:35;5.25;;;1.77;;
42632;SDS011;28261;53.304;-6.284;2024-03-02T01:27:39;4.38;;;1.45;;
42632;SDS011;28261;53.304;-6.284;2024-03-02T01:29:41;4.68;;;1.20;;
42632;SDS011;28261;53.304;-6.284;2024-03-02T01:31:45;4.88;;;1.42;;
42632;SDS011;28261;53.304;-6.284;2024-03-02T01:33:49;3.00;;;1.30;;
42632;SDS011;28261;53.304;-6.284;2024-03-02T01:35:53;5.28;;;1.90;;
42632;SDS011;28261;53.304;-6.284;2024-03-02T01:37:56;5.53;;;1.52;;
42632;SDS011;28261;53.304;-6.284;2024-03-02T01:40:01;8.93;;;2.35;;
42632;SDS011;28261;53.304;-6.284;2024-03-02T01:42:04;5.10;;;2.00;;
42632;SDS011;28261;53.304;-6.284;2024-03-02T01:44:08;3.97;;;1.70;;
42632;SDS011;28261;53.304;-6.284;2024-03-02T01:46:12;4.03;;;1.90;;
42632;SDS011;28261;53.304;-6.284;2024-03-02T01:48:16;8.40;;;2.72;;
42632;SDS011;28261;53.304;-6.284;2024-03-02T01:50:25;5.10;;;1.77;;
42632;SDS011;28261;53.304;-6.284;2024-03-02T01:52:30;5.00;;;2.00;;
42632;SDS011;28261;53.304;-6.284;2024-03-02T01:54:34;4.75;;;1.75;;
42632;SDS011;28261;53.304;-6.284;2024-03-02T01:56:39;8.95;;;1.65;;
42632;SDS011;28261;53.304;-6.284;2024-03-02T01:58:43;3.97;;;1.50;;
42632;SDS011;28261;53.304;-6.284;2024-03-02T02:00:47;3.95;;;1.60;;
42632;SDS011;28261;53.304;-6.284;2024-03-02T02:02:52;6.93;;;2.40;;
42632;SDS011;28261;53.304;-6.284;2024-03-02T02:04:56;6.70;;;1.88;;
42632;SDS011;28261;53.304;-6.284;2024-03-02T02:07:00;5.53;;;1.73;;
42632;SDS011;28261;53.304;-6.284;2024-03-02T02:09:05;6.53;;;1.60;;
42632;SDS011;28261;53.304;-6.284;2024-03-02T02:11:10;4.82;;;1.75;;
42632;SDS011;28261;53.304;-6.284;2024-03-02T02:13:16;5.97;;;1.77;;
42632;SDS011;28261;53.304;-6.284;2024-03-02T02:15:26;7.20;;;1.75;;
42632;SDS011;28261;53.304;-6.284;2024-03-02T02:17:31;4.20;;;1.85;;
42632;SDS011;28261;53.304;-6.284;2024-03-02T02:19:35;4.47;;;1.52;;
42632;SDS011;28261;53.304;-6.284;2024-03-02T02:21:43;6.13;;;1.75;;
42632;SDS011;28261;53.304;-6.284;2024-03-02T02:23:47;8.45;;;2.28;;
42632;SDS011;28261;53.304;-6.284;2024-03-02T02:25:52;4.95;;;1.23;;
42632;SDS011;28261;53.304;-6.284;2024-03-02T02:27:56;4.72;;;1.75;;
42632;SDS011;28261;53.304;-6.284;2024-03-02T02:30:00;4.15;;;1.38;;
42632;SDS011;28261;53.304;-6.284;2024-03-02T02:32:05;7.13;;;1.98;;
42632;SDS011;28261;53.304;-6.284;2024-03-02T02:34:09;3.75;;;1.67;;
42632;SDS011;28261;53.304;-6.284;2024-03-02T02:36:13;3.88;;;1.40;;
42632;SDS011;28261;53.304;-6.284;2024-03-02T02:38:17;7.00;;;1.52;;
42632;SDS011;28261;53.304;-6.284;2024-03-02T02:40:22;6.80;;;1.88;;
42632;SDS011;28261;53.304;-6.284;2024-03-02T02:42:26;8.18;;;1.50;;
42632;SDS011;28261;53.304;-6.284;2024-03-02T02:44:29;6.35;;;1.13;;
42632;SDS011;28261;53.304;-6.284;2024-03-02T02:46:32;6.82;;;1.88;;
42632;SDS011;28261;53.304;-6.284;2024-03-02T02:48:36;4.25;;;1.35;;
42632;SDS011;28261;53.304;-6.284;2024-03-02T02:50:41;6.55;;;1.42;;
42632;SDS011;28261;53.304;-6.284;2024-03-02T02:52:44;4.90;;;1.73;;
42632;SDS011;28261;53.304;-6.284;2024-03-02T02:54:49;6.63;;;1.60;;
42632;SDS011;28261;53.304;-6.284;2024-03-02T02:56:51;5.78;;;1.38;;
42632;SDS011;28261;53.304;-6.284;2024-03-02T02:58:55;4.13;;;1.20;;
42632;SDS011;28261;53.304;-6.284;2024-03-02T03:00:58;7.57;;;1.88;;
42632;SDS011;28261;53.304;-6.284;2024-03-02T03:03:02;10.70;;;1.70;;
42632;SDS011;28261;53.304;-6.284;2024-03-02T03:05:06;7.15;;;1.75;;
42632;SDS011;28261;53.304;-6.284;2024-03-02T03:07:11;4.53;;;1.38;;
42632;SDS011;28261;53.304;-6.284;2024-03-02T03:09:14;8.48;;;2.20;;
42632;SDS011;28261;53.304;-6.284;2024-03-02T03:11:20;6.90;;;1.52;;
42632;SDS011;28261;53.304;-6.284;2024-03-02T03:13:24;6.45;;;1.15;;
42632;SDS011;28261;53.304;-6.284;2024-03-02T03:15:28;9.05;;;2.22;;
42632;SDS011;28261;53.304;-6.284;2024-03-02T03:17:32;6.95;;;1.55;;
42632;SDS011;28261;53.304;-6.284;2024-03-02T03:19:37;5.28;;;1.67;;
42632;SDS011;28261;53.304;-6.284;2024-03-02T03:21:43;8.98;;;1.42;;
42632;SDS011;28261;53.304;-6.284;2024-03-02T03:25:50;7.00;;;1.50;;
42632;SDS011;28261;53.304;-6.284;2024-03-02T03:27:55;5.47;;;0.93;;
42632;SDS011;28261;53.304;-6.284;2024-03-02T03:29:59;7.15;;;1.45;;
42632;SDS011;28261;53.304;-6.284;2024-03-02T03:34:08;4.90;;;1.40;;
42632;SDS011;28261;53.304;-6.284;2024-03-02T03:36:14;5.13;;;1.25;;
42632;SDS011;28261;53.304;-6.284;2024-03-02T03:38:17;7.68;;;1.15;;
42632;SDS011;28261;53.304;-6.284;2024-03-02T03:40:22;7.22;;;1.00;;
42632;SDS011;28261;53.304;-6.284;2024-03-02T03:42:27;7.47;;;1.50;;
42632;SDS011;28261;53.304;-6.284;2024-03-02T03:44:34;2.78;;;1.30;;
42632;SDS011;28261;53.304;-6.284;2024-03-02T03:48:43;4.43;;;2.28;;
42632;SDS011;28261;53.304;-6.284;2024-03-02T03:50:47;8.77;;;1.35;;
42632;SDS011;28261;53.304;-6.284;2024-03-02T03:52:51;4.18;;;1.13;;
42632;SDS011;28261;53.304;-6.284;2024-03-02T03:54:54;7.32;;;1.30;;
42632;SDS011;28261;53.304;-6.284;2024-03-02T03:56:59;7.75;;;1.27;;
42632;SDS011;28261;53.304;-6.284;2024-03-02T03:59:02;6.57;;;1.27;;
42632;SDS011;28261;53.304;-6.284;2024-03-02T04:01:08;7.97;;;1.80;;
42632;SDS011;28261;53.304;-6.284;2024-03-02T04:03:12;6.20;;;2.42;;
42632;SDS011;28261;53.304;-6.284;2024-03-02T04:05:17;11.77;;;1.45;;
42632;SDS011;28261;53.304;-6.284;2024-03-02T04:07:21;11.10;;;1.52;;
42632;SDS011;28261;53.304;-6.284;2024-03-02T04:09:24;11.00;;;1.70;;
42632;SDS011;28261;53.304;-6.284;2024-03-02T04:11:28;4.43;;;1.30;;
42632;SDS011;28261;53.304;-6.284;2024-03-02T04:13:32;10.38;;;1.45;;
42632;SDS011;28261;53.304;-6.284;2024-03-02T04:15:36;10.55;;;1.30;;
42632;SDS011;28261;53.304;-6.284;2024-03-02T04:17:42;3.72;;;1.30;;
42632;SDS011;28261;53.304;-6.284;2024-03-02T04:19:46;12.70;;;1.40;;
42632;SDS011;28261;53.304;-6.284;2024-03-02T04:21:50;10.10;;;1.45;;
42632;SDS011;28261;53.304;-6.284;2024-03-02T04:23:54;4.32;;;1.13;;
42632;SDS011;28261;53.304;-6.284;2024-03-02T04:26:00;5.20;;;1.50;;
42632;SDS011;28261;53.304;-6.284;2024-03-02T04:28:04;7.50;;;1.40;;
42632;SDS011;28261;53.304;-6.284;2024-03-02T04:30:09;6.18;;;2.20;;
42632;SDS011;28261;53.304;-6.284;2024-03-02T04:32:13;6.05;;;1.80;;
42632;SDS011;28261;53.304;-6.284;2024-03-02T04:34:18;9.45;;;2.88;;
42632;SDS011;28261;53.304;-6.284;2024-03-02T04:38:25;5.90;;;1.75;;
42632;SDS011;28261;53.304;-6.284;2024-03-02T04:42:35;8.80;;;1.50;;
42632;SDS011;28261;53.304;-6.284;2024-03-02T04:44:38;6.38;;;1.27;;
42632;SDS011;28261;53.304;-6.284;2024-03-02T04:46:42;6.20;;;1.77;;
42632;SDS011;28261;53.304;-6.284;2024-03-02T04:48:45;8.38;;;1.70;;
42632;SDS011;28261;53.304;-6.284;2024-03-02T04:50:52;10.38;;;2.22;;
42632;SDS011;28261;53.304;-6.284;2024-03-02T04:52:56;5.95;;;1.38;;
42632;SDS011;28261;53.304;-6.284;2024-03-02T04:55:02;6.88;;;2.10;;
42632;SDS011;28261;53.304;-6.284;2024-03-02T04:57:18;8.60;;;1.83;;
42632;SDS011;28261;53.304;-6.284;2024-03-02T04:59:23;8.20;;;1.67;;
42632;SDS011;28261;53.304;-6.284;2024-03-02T05:01:26;10.98;;;1.65;;
42632;SDS011;28261;53.304;-6.284;2024-03-02T05:03:30;6.40;;;2.50;;
42632;SDS011;28261;53.304;-6.284;2024-03-02T05:05:37;3.55;;;1.13;;
42632;SDS011;28261;53.304;-6.284;2024-03-02T05:07:43;7.32;;;1.38;;
42632;SDS011;28261;53.304;-6.284;2024-03-02T05:09:47;7.43;;;1.63;;
42632;SDS011;28261;53.304;-6.284;2024-03-02T05:11:51;9.15;;;1.35;;
42632;SDS011;28261;53.304;-6.284;2024-03-02T05:14:13;5.13;;;1.30;;
42632;SDS011;28261;53.304;-6.284;2024-03-02T05:16:17;4.25;;;1.10;;
42632;SDS011;28261;53.304;-6.284;2024-03-02T05:18:21;8.90;;;1.67;;
42632;SDS011;28261;53.304;-6.284;2024-03-02T05:20:27;10.57;;;1.45;;
42632;SDS011;28261;53.304;-6.284;2024-03-02T05:22:31;11.52;;;2.17;;
42632;SDS011;28261;53.304;-6.284;2024-03-02T05:24:37;5.53;;;1.08;;
42632;SDS011;28261;53.304;-6.284;2024-03-02T05:26:41;6.88;;;1.30;;
42632;SDS011;28261;53.304;-6.284;2024-03-02T05:28:45;3.35;;;1.17;;
42632;SDS011;28261;53.304;-6.284;2024-03-02T05:30:49;9.18;;;1.65;;
42632;SDS011;28261;53.304;-6.284;2024-03-02T05:32:54;8.38;;;1.80;;
42632;SDS011;28261;53.304;-6.284;2024-03-02T05:34:58;8.23;;;1.63;;
42632;SDS011;28261;53.304;-6.284;2024-03-02T05:37:01;4.05;;;1.10;;
42632;SDS011;28261;53.304;-6.284;2024-03-02T05:39:05;7.40;;;1.60;;
42632;SDS011;28261;53.304;-6.284;2024-03-02T05:41:13;11.77;;;2.28;;
42632;SDS011;28261;53.304;-6.284;2024-03-02T05:43:17;9.95;;;1.23;;
42632;SDS011;28261;53.304;-6.284;2024-03-02T05:45:22;8.43;;;1.67;;
42632;SDS011;28261;53.304;-6.284;2024-03-02T05:47:26;5.53;;;1.48;;
42632;SDS011;28261;53.304;-6.284;2024-03-02T05:49:30;5.22;;;1.23;;
42632;SDS011;28261;53.304;-6.284;2024-03-02T05:51:34;9.45;;;1.30;;
42632;SDS011;28261;53.304;-6.284;2024-03-02T05:53:38;7.25;;;1.52;;
42632;SDS011;28261;53.304;-6.284;2024-03-02T05:55:42;7.60;;;2.00;;
42632;SDS011;28261;53.304;-6.284;2024-03-02T05:57:48;6.28;;;1.38;;
42632;SDS011;28261;53.304;-6.284;2024-03-02T06:00:05;8.38;;;1.08;;
42632;SDS011;28261;53.304;-6.284;2024-03-02T06:02:14;8.05;;;1.50;;
42632;SDS011;28261;53.304;-6.284;2024-03-02T06:04:18;9.82;;;1.98;;
42632;SDS011;28261;53.304;-6.284;2024-03-02T06:06:22;14.00;;;1.65;;
42632;SDS011;28261;53.304;-6.284;2024-03-02T06:08:26;10.32;;;1.48;;
42632;SDS011;28261;53.304;-6.284;2024-03-02T06:10:30;4.80;;;1.60;;
42632;SDS011;28261;53.304;-6.284;2024-03-02T06:12:34;9.88;;;1.52;;
42632;SDS011;28261;53.304;-6.284;2024-03-02T06:14:39;3.22;;;1.38;;
42632;SDS011;28261;53.304;-6.284;2024-03-02T06:16:42;4.68;;;1.02;;
42632;SDS011;28261;53.304;-6.284;2024-03-02T06:18:46;9.38;;;1.30;;
42632;SDS011;28261;53.304;-6.284;2024-03-02T06:20:50;6.53;;;1.17;;
42632;SDS011;28261;53.304;-6.284;2024-03-02T06:22:54;10.65;;;1.42;;
42632;SDS011;28261;53.304;-6.284;2024-03-02T06:24:58;5.30;;;1.80;;
42632;SDS011;28261;53.304;-6.284;2024-03-02T06:27:02;5.03;;;1.65;;
42632;SDS011;28261;53.304;-6.284;2024-03-02T06:29:07;6.78;;;1.58;;
42632;SDS011;28261;53.304;-6.284;2024-03-02T06:31:12;7.53;;;1.30;;
42632;SDS011;28261;53.304;-6.284;2024-03-02T06:33:16;3.58;;;1.50;;
42632;SDS011;28261;53.304;-6.284;2024-03-02T06:35:20;5.90;;;2.47;;
42632;SDS011;28261;53.304;-6.284;2024-03-02T06:37:25;6.82;;;1.83;;
42632;SDS011;28261;53.304;-6.284;2024-03-02T06:39:29;4.93;;;2.20;;
42632;SDS011;28261;53.304;-6.284;2024-03-02T06:41:36;4.97;;;1.45;;
42632;SDS011;28261;53.304;-6.284;2024-03-02T06:43:39;6.68;;;1.75;;
42632;SDS011;28261;53.304;-6.284;2024-03-02T06:45:43;7.72;;;1.38;;
42632;SDS011;28261;53.304;-6.284;2024-03-02T06:47:48;9.10;;;1.75;;
42632;SDS011;28261;53.304;-6.284;2024-03-02T06:49:53;5.13;;;1.98;;
42632;SDS011;28261;53.304;-6.284;2024-03-02T06:51:57;6.68;;;1.40;;
42632;SDS011;28261;53.304;-6.284;2024-03-02T06:54:01;9.20;;;1.92;;
42632;SDS011;28261;53.304;-6.284;2024-03-02T06:56:06;2.45;;;1.30;;
42632;SDS011;28261;53.304;-6.284;2024-03-02T06:58:12;6.72;;;1.90;;
42632;SDS011;28261;53.304;-6.284;2024-03-02T07:00:17;5.65;;;2.88;;
42632;SDS011;28261;53.304;-6.284;2024-03-02T07:02:22;5.55;;;1.40;;
42632;SDS011;28261;53.304;-6.284;2024-03-02T07:04:29;4.60;;;1.23;;
42632;SDS011;28261;53.304;-6.284;2024-03-02T07:06:32;10.07;;;1.55;;
42632;SDS011;28261;53.304;-6.284;2024-03-02T07:08:36;2.92;;;1.02;;
42632;SDS011;28261;53.304;-6.284;2024-03-02T07:10:40;4.53;;;1.00;;
42632;SDS011;28261;53.304;-6.284;2024-03-02T07:12:45;4.70;;;1.27;;
42632;SDS011;28261;53.304;-6.284;2024-03-02T07:14:49;2.30;;;0.75;;
42632;SDS011;28261;53.304;-6.284;2024-03-02T07:17:13;14.48;;;1.33;;
42632;SDS011;28261;53.304;-6.284;2024-03-02T07:19:17;5.25;;;1.33;;
42632;SDS011;28261;53.304;-6.284;2024-03-02T07:21:23;6.00;;;1.85;;
42632;SDS011;28261;53.304;-6.284;2024-03-02T07:23:27;4.38;;;1.73;;
42632;SDS011;28261;53.304;-6.284;2024-03-02T07:25:32;6.05;;;1.27;;
42632;SDS011;28261;53.304;-6.284;2024-03-02T07:27:39;2.10;;;0.98;;
42632;SDS011;28261;53.304;-6.284;2024-03-02T07:29:43;5.50;;;1.38;;
42632;SDS011;28261;53.304;-6.284;2024-03-02T07:31:47;8.65;;;1.42;;
42632;SDS011;28261;53.304;-6.284;2024-03-02T07:33:51;3.50;;;1.05;;
42632;SDS011;28261;53.304;-6.284;2024-03-02T07:35:56;7.03;;;1.55;;
42632;SDS011;28261;53.304;-6.284;2024-03-02T07:38:07;6.25;;;1.30;;
42632;SDS011;28261;53.304;-6.284;2024-03-02T07:40:12;5.65;;;1.63;;
42632;SDS011;28261;53.304;-6.284;2024-03-02T07:42:16;6.63;;;1.38;;
42632;SDS011;28261;53.304;-6.284;2024-03-02T07:44:21;6.68;;;1.20;;
42632;SDS011;28261;53.304;-6.284;2024-03-02T07:46:25;3.33;;;1.10;;
42632;SDS011;28261;53.304;-6.284;2024-03-02T07:48:28;5.68;;;1.50;;
42632;SDS011;28261;53.304;-6.284;2024-03-02T07:50:33;5.13;;;1.08;;
42632;SDS011;28261;53.304;-6.284;2024-03-02T07:52:37;5.32;;;1.58;;
42632;SDS011;28261;53.304;-6.284;2024-03-02T07:54:44;4.85;;;1.40;;
42632;SDS011;28261;53.304;-6.284;2024-03-02T07:56:48;3.97;;;1.55;;
42632;SDS011;28261;53.304;-6.284;2024-03-02T07:58:52;2.60;;;1.35;;
42632;SDS011;28261;53.304;-6.284;2024-03-02T08:00:56;4.32;;;1.70;;
42632;SDS011;28261;53.304;-6.284;2024-03-02T08:03:00;4.55;;;1.40;;
42632;SDS011;28261;53.304;-6.284;2024-03-02T08:09:13;8.75;;;1.20;;
42632;SDS011;28261;53.304;-6.284;2024-03-02T08:11:19;2.25;;;1.00;;
42632;SDS011;28261;53.304;-6.284;2024-03-02T08:13:23;7.97;;;1.30;;
42632;SDS011;28261;53.304;-6.284;2024-03-02T08:15:28;3.95;;;1.05;;
42632;SDS011;28261;53.304;-6.284;2024-03-02T08:17:32;4.32;;;1.15;;
42632;SDS011;28261;53.304;-6.284;2024-03-02T08:19:38;4.10;;;1.40;;
42632;SDS011;28261;53.304;-6.284;2024-03-02T08:21:43;4.43;;;1.05;;
42632;SDS011;28261;53.304;-6.284;2024-03-02T08:23:48;4.00;;;1.10;;
42632;SDS011;28261;53.304;-6.284;2024-03-02T08:25:53;2.05;;;0.93;;
42632;SDS011;28261;53.304;-6.284;2024-03-02T08:27:58;2.85;;;1.00;;
42632;SDS011;28261;53.304;-6.284;2024-03-02T08:30:03;2.75;;;1.00;;
42632;SDS011;28261;53.304;-6.284;2024-03-02T08:32:09;2.78;;;0.82;;
42632;SDS011;28261;53.304;-6.284;2024-03-02T08:34:15;1.75;;;0.75;;
42632;SDS011;28261;53.304;-6.284;2024-03-02T08:36:19;4.50;;;1.40;;
42632;SDS011;28261;53.304;-6.284;2024-03-02T08:38:23;2.25;;;1.00;;
42632;SDS011;28261;53.304;-6.284;2024-03-02T08:40:27;5.65;;;1.00;;
42632;SDS011;28261;53.304;-6.284;2024-03-02T08:42:32;1.05;;;0.60;;
42632;SDS011;28261;53.304;-6.284;2024-03-02T08:44:37;4.22;;;1.13;;
42632;SDS011;28261;53.304;-6.284;2024-03-02T08:46:42;3.22;;;0.68;;
42632;SDS011;28261;53.304;-6.284;2024-03-02T08:48:47;2.55;;;0.90;;
42632;SDS011;28261;53.304;-6.284;2024-03-02T08:50:51;3.53;;;0.60;;
42632;SDS011;28261;53.304;-6.284;2024-03-02T08:52:55;5.30;;;1.00;;
42632;SDS011;28261;53.304;-6.284;2024-03-02T08:54:59;4.20;;;0.80;;
42632;SDS011;28261;53.304;-6.284;2024-03-02T08:59:09;5.30;;;0.52;;
42632;SDS011;28261;53.304;-6.284;2024-03-02T09:01:15;4.60;;;0.60;;
42632;SDS011;28261;53.304;-6.284;2024-03-02T09:03:20;2.78;;;1.00;;
42632;SDS011;28261;53.304;-6.284;2024-03-02T09:05:25;1.75;;;0.80;;
42632;SDS011;28261;53.304;-6.284;2024-03-02T09:07:29;2.08;;;0.80;;
42632;SDS011;28261;53.304;-6.284;2024-03-02T09:09:33;4.28;;;0.70;;
42632;SDS011;28261;53.304;-6.284;2024-03-02T09:11:37;6.90;;;1.45;;
42632;SDS011;28261;53.304;-6.284;2024-03-02T09:13:44;5.95;;;0.77;;
42632;SDS011;28261;53.304;-6.284;2024-03-02T09:15:48;3.58;;;0.90;;
42632;SDS011;28261;53.304;-6.284;2024-03-02T09:17:53;2.67;;;0.68;;
42632;SDS011;28261;53.304;-6.284;2024-03-02T09:19:58;2.55;;;0.60;;
42632;SDS011;28261;53.304;-6.284;2024-03-02T09:22:06;3.70;;;1.05;;
42632;SDS011;28261;53.304;-6.284;2024-03-02T09:24:10;5.55;;;0.90;;
42632;SDS011;28261;53.304;-6.284;2024-03-02T09:26:19;2.13;;;0.80;;
42632;SDS011;28261;53.304;-6.284;2024-03-02T09:28:23;5.80;;;0.88;;
42632;SDS011;28261;53.304;-6.284;2024-03-02T09:30:27;4.22;;;1.00;;
42632;SDS011;28261;53.304;-6.284;2024-03-02T09:32:30;7.15;;;2.10;;
42632;SDS011;28261;53.304;-6.284;2024-03-02T09:34:36;4.55;;;1.25;;
42632;SDS011;28261;53.304;-6.284;2024-03-02T09:36:39;4.88;;;1.00;;
42632;SDS011;28261;53.304;-6.284;2024-03-02T09:38:44;5.20;;;0.75;;
42632;SDS011;28261;53.304;-6.284;2024-03-02T09:40:48;1.75;;;0.70;;
42632;SDS011;28261;53.304;-6.284;2024-03-02T09:42:56;6.45;;;0.93;;
42632;SDS011;28261;53.304;-6.284;2024-03-02T09:45:00;3.70;;;1.05;;
42632;SDS011;28261;53.304;-6.284;2024-03-02T09:47:07;3.42;;;0.70;;
42632;SDS011;28261;53.304;-6.284;2024-03-02T09:49:11;4.88;;;0.65;;
42632;SDS011;28261;53.304;-6.284;2024-03-02T09:51:16;1.27;;;0.70;;
42632;SDS011;28261;53.304;-6.284;2024-03-02T09:53:21;3.35;;;1.10;;
42632;SDS011;28261;53.304;-6.284;2024-03-02T09:55:26;5.25;;;0.73;;
42632;SDS011;28261;53.304;-6.284;2024-03-02T09:57:30;3.75;;;1.00;;
42632;SDS011;28261;53.304;-6.284;2024-03-02T09:59:34;3.05;;;0.70;;
42632;SDS011;28261;53.304;-6.284;2024-03-02T10:01:38;3.47;;;0.82;;
42632;SDS011;28261;53.304;-6.284;2024-03-02T10:03:44;2.30;;;0.80;;
42632;SDS011;28261;53.304;-6.284;2024-03-02T10:05:52;5.43;;;1.13;;
42632;SDS011;28261;53.304;-6.284;2024-03-02T10:08:00;4.32;;;0.93;;
42632;SDS011;28261;53.304;-6.284;2024-03-02T10:10:12;5.00;;;0.93;;
42632;SDS011;28261;53.304;-6.284;2024-03-02T10:12:17;1.05;;;0.80;;
42632;SDS011;28261;53.304;-6.284;2024-03-02T10:14:21;5.60;;;0.88;;
42632;SDS011;28261;53.304;-6.284;2024-03-02T10:16:24;4.18;;;1.02;;
42632;SDS011;28261;53.304;-6.284;2024-03-02T10:18:28;2.92;;;0.90;;
42632;SDS011;28261;53.304;-6.284;2024-03-02T10:20:33;1.92;;;0.80;;
42632;SDS011;28261;53.304;-6.284;2024-03-02T10:22:38;5.57;;;1.20;;
42632;SDS011;28261;53.304;-6.284;2024-03-02T10:24:43;2.50;;;0.88;;
42632;SDS011;28261;53.304;-6.284;2024-03-02T10:26:51;3.47;;;1.48;;
42632;SDS011;28261;53.304;-6.284;2024-03-02T10:28:54;4.18;;;0.98;;
42632;SDS011;28261;53.304;-6.284;2024-03-02T10:31:01;1.38;;;0.80;;
42632;SDS011;28261;53.304;-6.284;2024-03-02T10:33:08;4.10;;;0.77;;
42632;SDS011;28261;53.304;-6.284;2024-03-02T10:35:12;5.35;;;0.98;;
42632;SDS011;28261;53.304;-6.284;2024-03-02T10:37:16;2.35;;;0.80;;
42632;SDS011;28261;53.304;-6.284;2024-03-02T10:39:20;4.47;;;0.77;;
42632;SDS011;28261;53.304;-6.284;2024-03-02T10:41:28;3.33;;;0.68;;
42632;SDS011;28261;53.304;-6.284;2024-03-02T10:43:35;4.75;;;1.52;;
42632;SDS011;28261;53.304;-6.284;2024-03-02T10:45:38;3.42;;;0.70;;
42632;SDS011;28261;53.304;-6.284;2024-03-02T10:47:44;6.50;;;1.02;;
42632;SDS011;28261;53.304;-6.284;2024-03-02T10:49:50;5.63;;;0.75;;
42632;SDS011;28261;53.304;-6.284;2024-03-02T10:51:55;3.63;;;1.08;;
42632;SDS011;28261;53.304;-6.284;2024-03-02T10:53:59;4.72;;;0.93;;
42632;SDS011;28261;53.304;-6.284;2024-03-02T10:56:03;5.30;;;1.35;;
42632;SDS011;28261;53.304;-6.284;2024-03-02T10:58:12;1.25;;;0.60;;
42632;SDS011;28261;53.304;-6.284;2024-03-02T11:00:17;3.80;;;1.00;;
42632;SDS011;28261;53.304;-6.284;2024-03-02T11:02:27;2.90;;;1.45;;
42632;SDS011;28261;53.304;-6.284;2024-03-02T11:04:34;3.08;;;0.73;;
42632;SDS011;28261;53.304;-6.284;2024-03-02T11:08:44;2.65;;;0.80;;
42632;SDS011;28261;53.304;-6.284;2024-03-02T11:10:54;3.58;;;1.00;;
42632;SDS011;28261;53.304;-6.284;2024-03-02T11:13:02;2.13;;;0.70;;
42632;SDS011;28261;53.304;-6.284;2024-03-02T11:15:11;3.08;;;0.63;;
42632;SDS011;28261;53.304;-6.284;2024-03-02T11:17:21;2.40;;;0.80;;
42632;SDS011;28261;53.304;-6.284;2024-03-02T11:19:26;1.13;;;0.98;;
42632;SDS011;28261;53.304;-6.284;2024-03-02T11:21:31;4.32;;;1.65;;
42632;SDS011;28261;53.304;-6.284;2024-03-02T11:23:35;2.35;;;0.85;;
42632;SDS011;28261;53.304;-6.284;2024-03-02T11:25:39;3.53;;;1.00;;
42632;SDS011;28261;53.304;-6.284;2024-03-02T11:30:11;1.95;;;0.77;;
42632;SDS011;28261;53.304;-6.284;2024-03-02T11:32:55;3.30;;;0.98;;
42632;SDS011;28261;53.304;-6.284;2024-03-02T11:35:00;2.30;;;1.00;;
42632;SDS011;28261;53.304;-6.284;2024-03-02T11:37:06;2.53;;;1.10;;
42632;SDS011;28261;53.304;-6.284;2024-03-02T11:39:13;1.85;;;0.50;;
42632;SDS011;28261;53.304;-6.284;2024-03-02T11:41:20;2.08;;;0.70;;
42632;SDS011;28261;53.304;-6.284;2024-03-02T11:43:26;2.60;;;0.60;;
42632;SDS011;28261;53.304;-6.284;2024-03-02T11:45:31;2.03;;;0.70;;
42632;SDS011;28261;53.304;-6.284;2024-03-02T11:47:36;2.63;;;0.70;;
42632;SDS011;28261;53.304;-6.284;2024-03-02T11:49:41;1.27;;;1.05;;
42632;SDS011;28261;53.304;-6.284;2024-03-02T11:51:50;3.92;;;0.70;;
42632;SDS011;28261;53.304;-6.284;2024-03-02T11:54:05;2.10;;;0.93;;
42632;SDS011;28261;53.304;-6.284;2024-03-02T11:56:12;4.45;;;0.85;;
42632;SDS011;28261;53.304;-6.284;2024-03-02T11:58:19;3.33;;;1.00;;
42632;SDS011;28261;53.304;-6.284;2024-03-02T12:00:25;3.88;;;0.93;;
42632;SDS011;28261;53.304;-6.284;2024-03-02T12:02:31;4.97;;;1.13;;
42632;SDS011;28261;53.304;-6.284;2024-03-02T12:04:36;2.38;;;0.80;;
42632;SDS011;28261;53.304;-6.284;2024-03-02T12:06:44;1.95;;;1.08;;
42632;SDS011;28261;53.304;-6.284;2024-03-02T12:08:52;1.63;;;0.65;;
42632;SDS011;28261;53.304;-6.284;2024-03-02T12:10:58;0.95;;;0.65;;
42632;SDS011;28261;53.304;-6.284;2024-03-02T12:13:06;1.60;;;0.77;;
42632;SDS011;28261;53.304;-6.284;2024-03-02T12:15:13;1.70;;;0.60;;
42632;SDS011;28261;53.304;-6.284;2024-03-02T12:19:24;1.75;;;0.50;;
42632;SDS011;28261;53.304;-6.284;2024-03-02T12:21:29;2.63;;;0.80;;
42632;SDS011;28261;53.304;-6.284;2024-03-02T12:23:33;2.38;;;0.63;;
42632;SDS011;28261;53.304;-6.284;2024-03-02T12:25:38;2.40;;;0.60;;
42632;SDS011;28261;53.304;-6.284;2024-03-02T12:27:43;3.03;;;0.57;;
42632;SDS011;28261;53.304;-6.284;2024-03-02T12:29:45;1.17;;;0.60;;
42632;SDS011;28261;53.304;-6.284;2024-03-02T12:31:50;2.33;;;0.90;;
42632;SDS011;28261;53.304;-6.284;2024-03-02T12:33:55;0.82;;;0.65;;
42632;SDS011;28261;53.304;-6.284;2024-03-02T12:36:00;2.03;;;0.70;;
42632;SDS011;28261;53.304;-6.284;2024-03-02T12:38:04;2.17;;;0.50;;
42632;SDS011;28261;53.304;-6.284;2024-03-02T12:40:09;1.08;;;0.50;;
42632;SDS011;28261;53.304;-6.284;2024-03-02T12:42:13;1.58;;;0.40;;
42632;SDS011;28261;53.304;-6.284;2024-03-02T12:44:17;3.40;;;0.60;;
42632;SDS011;28261;53.304;-6.284;2024-03-02T12:46:22;0.30;;;0.30;;